Time;durP1;ratioP1;P1;durP2;ratioP2;P2;SDS_P1;SDS_P2;PMS_P1;PMS_P2;Temp;Humidity;BMP_temperature;BMP_pressure;BME280_temperature;BME280_humidity;BME280_pressure;Samples;Min_cycle;Max_cycle;Signal;HPM_P1;HPM_P2
2021/08/02 00:00:27;;;;;;;8.20;2.00;;;14.40;99.90;;;;;;5051643;28;20049;-70
2021/08/02 00:03:13;;;;;;;4.55;1.50;;;14.40;99.90;;;;;;5053670;28;20186;-69
2021/08/02 00:05:44;;;;;;;8.30;1.80;;;14.40;99.90;;;;;;5062104;28;20041;-69
2021/08/02 00:08:13;;;;;;;7.47;1.60;;;14.40;99.90;;;;;;5051648;28;20378;-69
2021/08/02 00:10:39;;;;;;;8.25;1.83;;;14.40;99.90;;;;;;5058016;28;20045;-70
2021/08/02 00:13:12;;;;;;;7.35;1.70;;;14.40;99.90;;;;;;5050553;28;20052;-69
2021/08/02 00:15:39;;;;;;;5.95;1.80;;;14.40;99.90;;;;;;5057250;28;20052;-69
2021/08/02 00:18:05;;;;;;;3.60;1.75;;;14.40;99.90;;;;;;5050407;28;20045;-69
2021/08/02 00:20:32;;;;;;;6.30;1.90;;;14.40;99.90;;;;;;5055944;28;20041;-70
2021/08/02 00:23:05;;;;;;;10.18;1.60;;;14.40;99.90;;;;;;5067022;28;20065;-69
2021/08/02 00:25:32;;;;;;;6.38;1.73;;;14.40;99.90;;;;;;5054353;28;20049;-69
2021/08/02 00:27:58;;;;;;;9.70;1.60;;;14.40;99.90;;;;;;5062243;28;20516;-69
2021/08/02 00:30:24;;;;;;;4.30;1.77;;;14.40;99.90;;;;;;5054722;28;20057;-69
2021/08/02 00:32:53;;;;;;;6.90;1.70;;;14.40;99.90;;;;;;5061426;28;20132;-69
2021/08/02 00:35:21;;;;;;;9.90;2.22;;;14.40;99.90;;;;;;5053421;28;20053;-70
2021/08/02 00:37:59;;;;;;;6.35;1.90;;;14.40;99.90;;;;;;5060923;28;20104;-70
2021/08/02 00:40:39;;;;;;;6.63;1.92;;;14.40;99.90;;;;;;5053309;28;20103;-70
2021/08/02 00:43:23;;;;;;;4.10;1.48;;;14.40;99.90;;;;;;5060137;28;20049;-70
2021/08/02 00:45:51;;;;;;;3.28;1.40;;;14.40;99.90;;;;;;5051705;28;20069;-70
2021/08/02 00:48:18;;;;;;;;;;;14.30;99.90;;;;;;5063459;28;20052;-69
2021/08/02 00:50:49;;;;;;;5.93;2.05;;;14.30;99.90;;;;;;5059775;28;19921;-70
2021/08/02 00:53:18;;;;;;;9.18;1.80;;;14.20;99.90;;;;;;5058846;28;20101;-69
2021/08/02 00:55:50;;;;;;;4.35;1.75;;;14.20;99.90;;;;;;5050963;28;20068;-69
2021/08/02 00:58:18;;;;;;;5.55;1.60;;;14.20;99.90;;;;;;5057967;28;20044;-69
2021/08/02 01:00:44;;;;;;;3.00;1.50;;;14.20;99.90;;;;;;5050330;28;20049;-70
2021/08/02 01:03:12;;;;;;;8.18;2.30;;;14.20;99.90;;;;;;5057392;28;20036;-70
2021/08/02 01:05:40;;;;;;;5.13;1.95;;;14.10;99.90;;;;;;5059524;28;20112;-69
2021/08/02 01:08:20;;;;;;;4.05;1.45;;;14.20;99.90;;;;;;5052796;28;20042;-69
2021/08/02 01:10:49;;;;;;;5.97;1.55;;;14.10;99.90;;;;;;5059207;28;20151;-70
2021/08/02 01:13:17;;;;;;;8.77;2.20;;;14.10;99.90;;;;;;5053102;28;20056;-70
2021/08/02 01:15:48;;;;;;;9.55;2.92;;;14.20;99.90;;;;;;5063083;28;20041;-70
2021/08/02 01:18:18;;;;;;;5.68;1.70;;;14.10;99.90;;;;;;5054759;28;20045;-70
2021/08/02 01:20:52;;;;;;;4.10;1.60;;;14.20;99.90;;;;;;5060965;28;20056;-70
2021/08/02 01:23:20;;;;;;;6.30;1.95;;;14.10;99.90;;;;;;5053970;28;20041;-70
2021/08/02 01:25:49;;;;;;;15.57;2.70;;;14.10;99.90;;;;;;5060072;28;20049;-70
2021/08/02 01:28:15;;;;;;;8.02;2.22;;;14.10;99.90;;;;;;5054216;28;20063;-70
2021/08/02 01:30:49;;;;;;;7.45;2.10;;;14.20;99.90;;;;;;5058694;28;20090;-70
2021/08/02 01:33:33;;;;;;;10.18;2.15;;;14.20;99.90;;;;;;5054154;28;20045;-69
2021/08/02 01:36:02;;;;;;;7.45;2.53;;;14.20;99.90;;;;;;5052718;28;20060;-70
2021/08/02 01:38:30;;;;;;;7.15;2.42;;;14.10;99.90;;;;;;5065710;28;20052;-70
2021/08/02 01:40:56;;;;;;;7.90;2.40;;;14.10;99.90;;;;;;5057888;28;20049;-70
2021/08/02 01:43:23;;;;;;;8.80;2.90;;;14.10;99.90;;;;;;5064897;28;20052;-70
2021/08/02 01:46:19;;;;;;;8.63;2.35;;;14.10;99.90;;;;;;5056969;28;20044;-69
2021/08/02 01:49:01;;;;;;;7.07;1.30;;;14.10;99.90;;;;;;5061128;28;20104;-69
2021/08/02 01:51:49;;;;;;;4.65;1.75;;;14.20;99.90;;;;;;5053927;28;20048;-69
2021/08/02 01:54:18;;;;;;;9.80;2.45;;;14.20;99.90;;;;;;5063463;28;20043;-69
2021/08/02 01:56:47;;;;;;;8.98;1.92;;;14.10;99.90;;;;;;5056077;28;20048;-70
2021/08/02 01:59:19;;;;;;;9.98;3.05;;;14.20;99.90;;;;;;5062539;28;20049;-70
2021/08/02 02:01:57;;;;;;;11.68;2.50;;;14.20;99.90;;;;;;5055316;28;20047;-69
2021/08/02 02:04:52;;;;;;;7.57;2.08;;;14.10;99.90;;;;;;5065649;28;20518;-69
2021/08/02 02:07:20;;;;;;;5.07;1.70;;;14.10;99.90;;;;;;5060909;28;20398;-69
2021/08/02 02:09:48;;;;;;;5.53;2.22;;;14.10;99.90;;;;;;5059280;28;20055;-69
2021/08/02 02:12:15;;;;;;;5.80;2.00;;;14.10;99.90;;;;;;5063496;28;20041;-70
2021/08/02 02:14:42;;;;;;;4.65;1.65;;;14.10;99.90;;;;;;5056909;28;20187;-70
2021/08/02 02:17:10;;;;;;;9.80;1.90;;;14.20;99.90;;;;;;5052880;28;20040;-69
2021/08/02 02:19:37;;;;;;;10.52;2.40;;;14.20;99.90;;;;;;5056109;28;20041;-70
2021/08/02 02:22:04;;;;;;;6.10;1.80;;;14.20;99.90;;;;;;5048378;28;20037;-69
2021/08/02 02:24:36;;;;;;;7.18;1.73;;;14.30;99.90;;;;;;5054736;28;20070;-69
2021/08/02 02:27:03;;;;;;;6.57;1.80;;;14.30;99.90;;;;;;5061978;28;20068;-69
2021/08/02 02:29:30;;;;;;;8.77;2.88;;;14.30;99.90;;;;;;5054642;28;20110;-69
2021/08/02 02:31:56;;;;;;;9.40;3.00;;;14.30;99.90;;;;;;5061178;28;20103;-69
2021/08/02 02:34:23;;;;;;;6.72;1.95;;;14.30;99.90;;;;;;5052963;28;20100;-69
2021/08/02 02:36:50;;;;;;;5.97;1.45;;;14.30;99.90;;;;;;5059065;28;20489;-69
2021/08/02 02:39:16;;;;;;;7.70;2.22;;;14.30;99.90;;;;;;5053586;28;20041;-69
2021/08/02 02:41:44;;;;;;;7.22;2.22;;;14.30;99.90;;;;;;5061310;28;20064;-69
2021/08/02 02:44:10;;;;;;;7.43;1.42;;;14.30;99.90;;;;;;5059217;28;20041;-69
2021/08/02 02:46:36;;;;;;;7.80;1.40;;;14.20;99.90;;;;;;5062228;28;20052;-70
2021/08/02 02:49:05;;;;;;;5.53;1.42;;;14.20;99.90;;;;;;5061736;28;20075;-69
2021/08/02 02:51:31;;;;;;;4.20;1.65;;;14.20;99.90;;;;;;5062226;28;20041;-69
2021/08/02 02:53:59;;;;;;;7.32;1.63;;;14.10;99.90;;;;;;5061942;28;20068;-70
2021/08/02 02:56:26;;;;;;;;;;;14.10;99.90;;;;;;5054100;28;20527;-69
2021/08/02 02:58:51;;;;;;;3.47;1.10;;;14.10;99.90;;;;;;5059240;28;19931;-68
2021/08/02 03:01:22;;;;;;;6.75;1.45;;;14.10;99.90;;;;;;5059775;28;20045;-69
2021/08/02 03:03:50;;;;;;;3.03;1.35;;;14.00;99.90;;;;;;5059330;28;20049;-69
2021/08/02 03:06:18;;;;;;;5.35;1.15;;;14.00;99.90;;;;;;5051720;28;20105;-69
2021/08/02 03:08:45;;;;;;;3.70;1.10;;;14.10;99.90;;;;;;5058633;28;20049;-69
2021/08/02 03:11:15;;;;;;;5.03;1.20;;;14.00;99.90;;;;;;5051187;28;20104;-68
2021/08/02 03:13:41;;;;;;;7.00;2.08;;;14.00;99.90;;;;;;5050682;28;20139;-69
2021/08/02 03:16:07;;;;;;;3.13;1.58;;;14.10;99.90;;;;;;5063807;28;20110;-69
2021/08/02 03:18:36;;;;;;;5.80;1.00;;;14.10;99.90;;;;;;5056308;28;20045;-69
2021/08/02 03:21:03;;;;;;;6.38;1.40;;;14.10;99.90;;;;;;5062690;28;20065;-69
2021/08/02 03:23:33;;;;;;;4.18;1.90;;;14.20;99.90;;;;;;5055775;28;20049;-69
2021/08/02 03:26:04;;;;;;;4.68;1.33;;;14.10;99.90;;;;;;5062341;28;20041;-69
2021/08/02 03:28:50;;;;;;;3.13;1.08;;;14.20;99.90;;;;;;5054684;28;20056;-69
2021/08/02 03:31:24;;;;;;;6.10;1.70;;;14.20;99.90;;;;;;5055142;28;20064;-69
2021/08/02 03:33:52;;;;;;;11.40;1.52;;;14.30;99.90;;;;;;5054045;28;20041;-68
2021/08/02 03:36:20;;;;;;;9.52;1.50;;;14.20;99.90;;;;;;5060013;28;20049;-69
2021/08/02 03:38:50;;;;;;;9.90;2.20;;;14.20;99.90;;;;;;5053222;28;20151;-69
2021/08/02 03:41:19;;;;;;;5.97;1.40;;;14.20;99.90;;;;;;5053018;28;20072;-70
2021/08/02 03:43:46;;;;;;;7.45;1.60;;;14.30;99.90;;;;;;5052554;28;20075;-69
2021/08/02 03:46:13;;;;;;;9.63;2.20;;;14.40;99.90;;;;;;5052074;28;20057;-69
2021/08/02 03:48:40;;;;;;;6.82;1.60;;;14.20;99.90;;;;;;5052064;28;20764;-69
2021/08/02 03:51:06;;;;;;;4.20;1.48;;;14.20;99.90;;;;;;5055778;28;20099;-69
2021/08/02 03:53:41;;;;;;;9.70;1.50;;;14.20;99.90;;;;;;5053170;28;20049;-69
2021/08/02 03:56:10;;;;;;;7.18;1.45;;;14.20;99.90;;;;;;5054952;28;20047;-69
2021/08/02 03:58:37;;;;;;;3.85;1.10;;;14.10;99.90;;;;;;5053616;28;20059;-69
2021/08/02 04:01:03;;;;;;;3.97;1.30;;;14.10;99.90;;;;;;5053009;28;20045;-70
2021/08/02 04:03:29;;;;;;;6.38;2.72;;;14.00;99.90;;;;;;5062806;28;20043;-69
2021/08/02 04:05:57;;;;;;;7.47;2.05;;;14.00;99.90;;;;;;5055064;28;20492;-69
2021/08/02 04:08:24;;;;;;;5.07;1.40;;;13.90;99.90;;;;;;5061924;28;20041;-69
2021/08/02 04:10:50;;;;;;;11.88;2.05;;;13.90;99.90;;;;;;5055320;28;20078;-69
2021/08/02 04:13:17;;;;;;;8.55;1.67;;;13.90;99.90;;;;;;5060503;28;20041;-69
2021/08/02 04:15:43;;;;;;;7.50;1.58;;;13.80;99.90;;;;;;5056678;28;20056;-69
2021/08/02 04:18:09;;;;;;;6.18;1.30;;;13.80;99.90;;;;;;5058265;28;20079;-69
2021/08/02 04:20:35;;;;;;;7.57;2.20;;;13.70;99.90;;;;;;5056748;28;20045;-68
2021/08/02 04:23:01;;;;;;;4.45;1.75;;;13.70;99.90;;;;;;5055177;28;20080;-69
2021/08/02 04:25:27;;;;;;;7.93;2.05;;;13.70;99.90;;;;;;5058666;28;20048;-68
2021/08/02 04:27:54;;;;;;;6.97;2.28;;;13.70;99.90;;;;;;5053072;28;20042;-68
2021/08/02 04:30:21;;;;;;;7.95;1.98;;;13.70;99.90;;;;;;5059711;28;20068;-68
2021/08/02 04:32:47;;;;;;;5.97;1.50;;;13.80;99.90;;;;;;5052528;28;20045;-68
2021/08/02 04:35:14;;;;;;;5.25;1.27;;;13.90;99.90;;;;;;5057927;28;20053;-68
2021/08/02 04:37:40;;;;;;;10.38;1.92;;;13.90;99.90;;;;;;5051516;28;20575;-70
2021/08/02 04:40:07;;;;;;;4.32;1.58;;;13.70;99.90;;;;;;5058184;28;20045;-69
2021/08/02 04:42:37;;;;;;;6.37;1.80;;;13.60;99.90;;;;;;5050799;28;20032;-69
2021/08/02 04:45:04;;;;;;;9.88;2.17;;;13.60;99.90;;;;;;5057278;28;20049;-69
2021/08/02 04:47:30;;;;;;;6.95;1.70;;;13.50;99.90;;;;;;5050939;28;20091;-69
2021/08/02 04:49:56;;;;;;;6.60;1.90;;;13.50;99.90;;;;;;5067080;28;20045;-70
2021/08/02 04:52:22;;;;;;;4.93;1.40;;;13.60;99.90;;;;;;5062412;28;20049;-69
2021/08/02 04:54:48;;;;;;;7.22;2.28;;;13.60;99.90;;;;;;5055305;28;20060;-69
2021/08/02 04:57:14;;;;;;;10.70;1.88;;;13.60;99.90;;;;;;5061763;28;20500;-69
2021/08/02 04:59:39;;;;;;;4.13;2.05;;;13.60;99.90;;;;;;5054266;28;20041;-70
2021/08/02 05:02:06;;;;;;;5.88;1.70;;;13.70;99.90;;;;;;5060987;28;20053;-69
2021/08/02 05:04:32;;;;;;;6.35;1.50;;;13.60;99.90;;;;;;5053502;28;20071;-69
2021/08/02 05:06:58;;;;;;;10.43;1.95;;;13.50;99.90;;;;;;5060070;28;20160;-69
2021/08/02 05:09:24;;;;;;;7.53;1.85;;;13.40;99.90;;;;;;5052801;28;20050;-69
2021/08/02 05:11:53;;;;;;;8.05;1.52;;;13.40;99.90;;;;;;5059372;28;20515;-70
2021/08/02 05:14:19;;;;;;;7.40;2.00;;;13.40;99.90;;;;;;5066121;28;20064;-69
2021/08/02 05:16:45;;;;;;;5.00;2.00;;;13.40;99.90;;;;;;5052759;28;20045;-70
2021/08/02 05:19:12;;;;;;;8.93;2.85;;;13.30;99.90;;;;;;5065685;28;20067;-70
2021/08/02 05:21:38;;;;;;;8.25;2.65;;;13.30;99.90;;;;;;5057708;28;20052;-69
2021/08/02 05:24:04;;;;;;;6.97;2.40;;;13.30;99.90;;;;;;5064618;28;20527;-69
2021/08/02 05:26:30;;;;;;;6.25;1.67;;;13.30;99.90;;;;;;5056071;28;20104;-69
2021/08/02 05:28:57;;;;;;;5.60;1.90;;;13.40;99.90;;;;;;5063933;28;20048;-70
2021/08/02 05:31:23;;;;;;;8.30;2.03;;;13.50;99.90;;;;;;5055650;28;20112;-70
2021/08/02 05:33:49;;;;;;;10.38;2.42;;;13.50;99.90;;;;;;5062789;28;20650;-70
2021/08/02 05:36:16;;;;;;;4.68;2.03;;;13.60;99.90;;;;;;5056385;28;20057;-70
2021/08/02 05:38:43;;;;;;;10.18;2.15;;;13.70;99.90;;;;;;5060848;28;20048;-69
2021/08/02 05:41:09;;;;;;;13.57;2.03;;;13.80;99.90;;;;;;5057994;28;20041;-70
2021/08/02 05:43:34;;;;;;;7.05;2.13;;;13.90;99.90;;;;;;5058424;28;20112;-70
2021/08/02 05:46:02;;;;;;;8.73;2.23;;;14.00;99.90;;;;;;5059185;28;20107;-70
2021/08/02 05:48:27;;;;;;;10.23;1.63;;;14.00;99.90;;;;;;5054329;28;20073;-70
2021/08/02 05:50:53;;;;;;;7.10;1.92;;;14.10;99.90;;;;;;5059663;28;20102;-70
2021/08/02 05:53:19;;;;;;;7.22;1.60;;;14.20;99.90;;;;;;5060787;28;20562;-69
2021/08/02 05:55:44;;;;;;;7.45;1.85;;;14.20;99.90;;;;;;5055861;28;20049;-70
2021/08/02 05:58:11;;;;;;;5.63;1.40;;;14.30;99.90;;;;;;5062159;28;20065;-70
2021/08/02 06:00:38;;;;;;;4.65;1.63;;;14.40;99.90;;;;;;5055828;28;20151;-70
2021/08/02 06:03:03;;;;;;;8.13;1.88;;;14.50;99.90;;;;;;5062366;28;20051;-70
2021/08/02 06:05:29;;;;;;;5.88;1.75;;;14.60;99.90;;;;;;5060552;28;20109;-69
2021/08/02 06:07:55;;;;;;;6.15;1.60;;;14.70;99.90;;;;;;5061318;28;20112;-69
2021/08/02 06:10:21;;;;;;;7.22;1.40;;;14.90;99.90;;;;;;5054481;28;20060;-69
2021/08/02 06:12:47;;;;;;;9.32;1.55;;;15.00;99.90;;;;;;5060625;28;20049;-69
2021/08/02 06:15:15;;;;;;;4.22;1.48;;;15.20;99.90;;;;;;5061045;28;20037;-70
2021/08/02 06:17:41;;;;;;;3.58;1.65;;;15.30;99.90;;;;;;5059270;28;20056;-69
2021/08/02 06:20:08;;;;;;;7.53;1.70;;;15.20;99.90;;;;;;5063496;28;20063;-69
2021/08/02 06:22:37;;;;;;;6.60;1.48;;;15.10;99.90;;;;;;5058593;28;20064;-70
2021/08/02 06:25:03;;;;;;;8.30;2.17;;;15.10;99.90;;;;;;5050543;28;20037;-69
2021/08/02 06:27:31;;;;;;;6.30;1.73;;;15.10;99.90;;;;;;5056286;28;20045;-70
2021/08/02 06:30:01;;;;;;;4.30;1.48;;;15.10;99.90;;;;;;5064075;28;20059;-69
2021/08/02 06:32:28;;;;;;;6.38;1.38;;;15.10;99.90;;;;;;5056457;28;20041;-69
2021/08/02 06:34:54;;;;;;;7.77;1.63;;;15.10;99.90;;;;;;5063356;28;20061;-70
2021/08/02 06:37:22;;;;;;;9.73;1.27;;;15.10;99.90;;;;;;5055339;28;20037;-70
2021/08/02 06:39:49;;;;;;;4.50;1.35;;;15.20;99.90;;;;;;5062552;28;20041;-70
2021/08/02 06:42:15;;;;;;;2.77;1.20;;;15.30;99.90;;;;;;5055266;28;20041;-71
2021/08/02 06:44:46;;;;;;;6.43;1.20;;;15.30;99.90;;;;;;5061720;28;20051;-70
2021/08/02 06:47:12;;;;;;;3.35;1.08;;;15.30;99.90;;;;;;5054093;28;20049;-70
2021/08/02 06:49:38;;;;;;;3.38;1.08;;;15.40;99.90;;;;;;5057074;28;20036;-71
2021/08/02 06:52:04;;;;;;;9.57;1.30;;;15.50;99.90;;;;;;5063461;28;20080;-70
2021/08/02 06:54:30;;;;;;;6.28;1.42;;;15.60;99.90;;;;;;5056479;28;20050;-70
2021/08/02 06:56:55;;;;;;;4.53;1.20;;;15.90;99.90;;;;;;5059303;28;20523;-70
2021/08/02 06:59:21;;;;;;;6.18;1.10;;;16.20;99.90;;;;;;5055806;28;21904;-70
2021/08/02 07:01:47;;;;;;;6.32;1.80;;;16.40;99.90;;;;;;5062395;28;20155;-71
2021/08/02 07:04:13;;;;;;;11.68;1.95;;;16.30;99.90;;;;;;5063299;28;20052;-69
2021/08/02 07:06:41;;;;;;;5.28;1.30;;;16.20;99.90;;;;;;5060967;28;20413;-71
2021/08/02 07:09:08;;;;;;;3.72;1.17;;;16.20;99.90;;;;;;5055240;28;20045;-70
2021/08/02 07:11:34;;;;;;;6.57;1.30;;;16.20;99.90;;;;;;5059388;28;20048;-70
2021/08/02 07:13:59;;;;;;;6.97;1.30;;;16.10;99.90;;;;;;5056644;28;20041;-70
2021/08/02 07:16:25;;;;;;;6.88;1.85;;;16.20;99.90;;;;;;5056683;28;20036;-70
2021/08/02 07:18:53;;;;;;;2.78;0.88;;;16.20;99.90;;;;;;5057181;28;20390;-70
2021/08/02 07:21:19;;;;;;;4.47;0.88;;;16.20;99.90;;;;;;5055111;28;20041;-70
2021/08/02 07:23:45;;;;;;;2.05;0.90;;;16.10;99.90;;;;;;5058211;28;20128;-70
2021/08/02 07:26:11;;;;;;;5.03;1.00;;;16.00;99.90;;;;;;5048229;28;20239;-70
2021/08/02 07:28:37;;;;;;;4.25;0.70;;;16.00;99.90;;;;;;5058999;28;20197;-69
2021/08/02 07:31:03;;;;;;;4.25;0.60;;;16.00;99.90;;;;;;5051286;28;20084;-69
2021/08/02 07:33:29;;;;;;;2.72;0.70;;;16.00;99.90;;;;;;5058522;28;20045;-70
2021/08/02 07:35:56;;;;;;;2.42;0.70;;;16.10;99.90;;;;;;5049932;28;20088;-70
2021/08/02 07:38:22;;;;;;;4.63;0.80;;;16.10;99.90;;;;;;5059154;28;20384;-69
2021/08/02 07:40:49;;;;;;;3.45;1.00;;;16.10;99.90;;;;;;5062058;28;20056;-69
2021/08/02 07:43:14;;;;;;;3.45;1.58;;;16.20;99.90;;;;;;5056459;28;20063;-69
2021/08/02 07:45:40;;;;;;;3.85;1.23;;;16.20;99.90;;;;;;5063076;28;20104;-69
2021/08/02 07:48:06;;;;;;;3.10;1.38;;;16.40;99.90;;;;;;5054510;28;20428;-68
2021/08/02 07:50:32;;;;;;;3.20;0.57;;;16.80;99.90;;;;;;5057796;28;20056;-69
2021/08/02 07:52:58;;;;;;;4.03;1.00;;;17.00;99.90;;;;;;5050628;28;20556;-69
2021/08/02 07:55:24;;;;;;;2.28;0.60;;;17.20;99.90;;;;;;5053410;28;20061;-69
2021/08/02 07:57:49;;;;;;;2.88;0.70;;;17.50;99.90;;;;;;5062260;28;20045;-68
2021/08/02 08:00:18;;;;;;;1.00;0.60;;;17.80;99.90;;;;;;5056101;28;20045;-70
2021/08/02 08:02:45;;;;;;;4.13;0.75;;;17.80;99.90;;;;;;5062999;28;20048;-68
2021/08/02 08:05:12;;;;;;;4.32;1.95;;;18.20;99.90;;;;;;5055064;28;20167;-68
2021/08/02 08:07:46;;;;;;;3.05;0.90;;;18.30;99.90;;;;;;5062471;28;20053;-69
2021/08/02 08:10:13;;;;;;;4.70;1.00;;;18.20;99.90;;;;;;5054868;28;20071;-69
2021/08/02 08:12:39;;;;;;;;;;;17.90;99.90;;;;;;5060760;28;20120;-68
2021/08/02 08:15:06;;;;;;;4.30;1.08;;;17.80;99.90;;;;;;5053054;28;19927;-68
2021/08/02 08:17:32;;;;;;;3.90;1.25;;;17.60;99.90;;;;;;5055883;28;20531;-69
2021/08/02 08:19:58;;;;;;;5.63;0.93;;;17.40;99.90;;;;;;5057871;28;20045;-68
2021/08/02 08:22:27;;;;;;;2.20;0.90;;;17.40;99.90;;;;;;5057912;28;20037;-68
2021/08/02 08:24:53;;;;;;;4.97;1.48;;;17.40;99.90;;;;;;5061041;28;20049;-68
2021/08/02 08:27:19;;;;;;;5.65;1.67;;;17.30;99.90;;;;;;5063139;28;20132;-68
2021/08/02 08:29:45;;;;;;;6.40;1.58;;;17.60;99.90;;;;;;5060279;28;20104;-63
2021/08/02 08:32:11;;;;;;;5.03;0.90;;;18.00;99.90;;;;;;5065118;28;20075;-63
2021/08/02 08:34:37;;;;;;;4.38;1.10;;;18.30;99.90;;;;;;5061914;28;20051;-63
2021/08/02 08:37:03;;;;;;;3.65;1.05;;;18.50;99.90;;;;;;5066344;28;20041;-63
2021/08/02 08:39:28;;;;;;;6.05;1.27;;;18.00;99.90;;;;;;5063322;28;20037;-63
2021/08/02 08:41:56;;;;;;;2.97;0.70;;;17.60;99.90;;;;;;5065221;28;20045;-64
2021/08/02 08:44:26;;;;;;;5.00;1.00;;;17.40;99.90;;;;;;5067349;28;20045;-64
2021/08/02 08:46:52;;;;;;;5.20;1.15;;;17.20;99.90;;;;;;5070326;28;20040;-64
2021/08/02 08:49:18;;;;;;;8.48;1.48;;;17.10;99.90;;;;;;5065085;28;20102;-64
2021/08/02 08:51:44;;;;;;;6.47;1.50;;;17.00;99.90;;;;;;5061349;28;20512;-65
2021/08/02 08:54:10;;;;;;;3.08;2.13;;;16.90;99.90;;;;;;5068328;28;20049;-64
2021/08/02 08:56:36;;;;;;;2.47;0.75;;;16.70;99.90;;;;;;5062469;28;20098;-64
2021/08/02 08:59:02;;;;;;;2.13;0.80;;;16.50;99.90;;;;;;5063506;28;20057;-64
2021/08/02 09:01:30;;;;;;;3.90;1.02;;;16.30;99.90;;;;;;5063375;28;20048;-64
2021/08/02 09:04:02;;;;;;;3.40;0.93;;;16.10;99.90;;;;;;5068478;28;20103;-65
2021/08/02 09:06:27;;;;;;;3.42;1.00;;;16.10;99.90;;;;;;5059978;28;20037;-65
2021/08/02 09:08:53;;;;;;;5.68;1.20;;;16.20;99.90;;;;;;5061367;28;20056;-65
2021/08/02 09:11:21;;;;;;;3.92;1.17;;;16.30;99.90;;;;;;5068566;28;20111;-65
2021/08/02 09:13:48;;;;;;;5.28;1.00;;;16.40;99.90;;;;;;5067695;28;20045;-65
2021/08/02 09:16:16;;;;;;;7.28;1.52;;;16.50;99.90;;;;;;5064660;28;20036;-64
2021/08/02 09:18:56;;;;;;;4.03;1.00;;;16.60;99.90;;;;;;5062033;28;20060;-65
2021/08/02 09:21:22;;;;;;;3.70;1.13;;;16.70;99.90;;;;;;5061490;28;20052;-64
2021/08/02 09:23:49;;;;;;;1.90;0.93;;;16.70;99.90;;;;;;5064895;28;20045;-64
2021/08/02 09:26:15;;;;;;;1.95;0.90;;;16.70;99.90;;;;;;5062633;28;20051;-64
2021/08/02 09:28:51;;;;;;;4.43;0.75;;;16.90;99.90;;;;;;5061804;28;20108;-64
2021/08/02 09:31:17;;;;;;;4.25;1.50;;;16.90;99.90;;;;;;5056791;28;20045;-64
2021/08/02 09:33:47;;;;;;;3.45;0.80;;;17.00;99.90;;;;;;5069309;28;20059;-64
2021/08/02 09:36:16;;;;;;;2.67;0.75;;;17.10;99.90;;;;;;5067925;28;20072;-65
2021/08/02 09:38:43;;;;;;;5.40;1.35;;;17.30;99.90;;;;;;5066158;28;20131;-64
2021/08/02 09:41:19;;;;;;;3.60;0.90;;;17.50;99.90;;;;;;5074375;28;20048;-64
2021/08/02 09:43:50;;;;;;;4.50;1.00;;;17.70;99.90;;;;;;5075939;28;20041;-66
2021/08/02 09:46:16;;;;;;;4.65;0.90;;;17.70;99.90;;;;;;5063678;28;20059;-65
2021/08/02 09:48:43;;;;;;;4.95;0.98;;;17.70;99.90;;;;;;5064535;28;20492;-65
2021/08/02 09:51:15;;;;;;;3.88;1.25;;;17.70;99.90;;;;;;5064991;28;20045;-66
2021/08/02 09:53:49;;;;;;;2.67;1.02;;;17.80;99.90;;;;;;5064254;28;20046;-65
2021/08/02 09:56:22;;;;;;;8.30;1.20;;;18.00;99.90;;;;;;5064110;28;20041;-64
2021/08/02 09:58:48;;;;;;;7.32;0.98;;;18.40;99.90;;;;;;5064869;28;20049;-64
2021/08/02 10:01:16;;;;;;;3.22;1.00;;;18.40;99.90;;;;;;5064637;28;20067;-64
2021/08/02 10:03:42;;;;;;;;;;;18.50;99.90;;;;;;5064308;28;20045;-64
2021/08/02 10:06:09;;;;;;;3.67;0.90;;;18.60;99.90;;;;;;5067440;28;19927;-64
2021/08/02 10:08:36;;;;;;;3.47;1.00;;;18.60;99.90;;;;;;5063253;28;20056;-64
2021/08/02 10:11:02;;;;;;;6.60;1.67;;;18.50;99.90;;;;;;5064752;28;20148;-64
2021/08/02 10:13:31;;;;;;;5.07;1.20;;;18.50;99.90;;;;;;5066331;28;20041;-64
2021/08/02 10:15:58;;;;;;;5.50;1.30;;;18.30;99.90;;;;;;5069508;28;20041;-64
2021/08/02 10:18:25;;;;;;;;;;;18.10;99.90;;;;;;5065582;28;20463;-63
2021/08/02 10:21:06;;;;;;;4.72;1.00;;;18.10;99.90;;;;;;5063719;28;19931;-64
2021/08/02 10:23:33;;;;;;;5.80;1.10;;;18.00;99.90;;;;;;5063257;28;20110;-64
2021/08/02 10:25:58;;;;;;;6.95;1.02;;;18.20;99.90;;;;;;5070703;28;20144;-63
2021/08/02 10:28:25;;;;;;;3.72;1.00;;;18.20;99.90;;;;;;5064349;28;20568;-64
2021/08/02 10:31:05;;;;;;;4.45;1.08;;;18.40;99.90;;;;;;5062576;28;20550;-63
2021/08/02 10:33:36;;;;;;;1.88;0.63;;;18.50;99.90;;;;;;5065357;28;20045;-64
2021/08/02 10:36:16;;;;;;;3.85;0.80;;;18.60;99.90;;;;;;5066242;28;20064;-63
2021/08/02 10:38:48;;;;;;;1.35;0.77;;;18.50;99.90;;;;;;5059244;28;20045;-64
2021/08/02 10:41:24;;;;;;;2.60;0.80;;;18.50;99.90;;;;;;5059799;28;20069;-64
2021/08/02 10:43:51;;;;;;;4.72;0.90;;;18.40;99.90;;;;;;5063648;28;20237;-64
2021/08/02 10:46:18;;;;;;;3.22;0.55;;;18.40;99.90;;;;;;5056224;28;20072;-64
2021/08/02 10:48:45;;;;;;;1.77;0.60;;;18.40;99.90;;;;;;5061539;28;20055;-64
2021/08/02 10:51:16;;;;;;;2.17;0.77;;;18.50;99.90;;;;;;5060368;28;20061;-64
2021/08/02 10:53:43;;;;;;;2.70;0.95;;;18.50;99.90;;;;;;5057539;28;20314;-64
2021/08/02 10:56:09;;;;;;;1.07;0.63;;;18.50;99.90;;;;;;5061897;28;20044;-64
2021/08/02 10:58:40;;;;;;;4.22;0.82;;;18.50;99.90;;;;;;5059676;28;20311;-64
2021/08/02 11:01:14;;;;;;;4.80;1.00;;;18.60;99.90;;;;;;5061318;28;20057;-64
2021/08/02 11:03:41;;;;;;;1.92;0.90;;;18.60;99.90;;;;;;5057655;28;20057;-63
2021/08/02 11:06:18;;;;;;;3.53;1.00;;;18.80;99.90;;;;;;5060319;28;20561;-64
2021/08/02 11:08:49;;;;;;;3.25;0.70;;;18.90;99.90;;;;;;5056320;28;20049;-63
2021/08/02 11:11:19;;;;;;;3.47;0.70;;;19.00;99.90;;;;;;5058755;28;20052;-64
2021/08/02 11:13:45;;;;;;;5.03;1.50;;;18.90;99.90;;;;;;5061394;28;20053;-64
2021/08/02 11:16:11;;;;;;;2.85;0.88;;;19.10;99.90;;;;;;5061408;28;20472;-64
2021/08/02 11:18:41;;;;;;;2.45;0.85;;;19.20;99.90;;;;;;5061116;28;20059;-63
2021/08/02 11:21:07;;;;;;;1.02;0.70;;;19.20;99.90;;;;;;5057067;28;20064;-63
2021/08/02 11:23:37;;;;;;;2.05;0.70;;;19.20;99.90;;;;;;5063599;28;20481;-63
2021/08/02 11:26:06;;;;;;;1.58;0.40;;;19.30;99.90;;;;;;5060537;28;20396;-63
2021/08/02 11:28:48;;;;;;;7.60;1.40;;;19.50;99.90;;;;;;5063075;28;20045;-63
2021/08/02 11:31:15;;;;;;;0.63;0.40;;;19.70;99.90;;;;;;5070788;28;20064;-63
2021/08/02 11:33:44;;;;;;;;;;;20.00;99.90;;;;;;5063076;28;20086;-63
2021/08/02 11:36:21;;;;;;;2.20;0.93;;;20.00;99.90;;;;;;5065124;28;19921;-63
2021/08/02 11:38:48;;;;;;;2.00;0.98;;;19.90;99.90;;;;;;5063905;28;20045;-63
2021/08/02 11:41:29;;;;;;;4.55;0.73;;;20.00;99.90;;;;;;5065713;28;20041;-63
2021/08/02 11:43:58;;;;;;;4.38;0.70;;;20.10;99.90;;;;;;5060003;28;20037;-63
2021/08/02 11:46:24;;;;;;;1.65;0.63;;;19.80;99.90;;;;;;5068983;28;20045;-63
2021/08/02 11:48:50;;;;;;;4.72;0.52;;;19.40;99.90;;;;;;5061799;28;20112;-64
2021/08/02 11:51:18;;;;;;;1.58;0.50;;;19.50;99.90;;;;;;5059562;28;20098;-64
2021/08/02 11:53:44;;;;;;;;;;;19.30;99.90;;;;;;5063102;28;20059;-63
2021/08/02 11:56:10;;;;;;;2.08;0.57;;;19.60;99.90;;;;;;5052737;28;19977;-63
2021/08/02 11:58:44;;;;;;;3.65;0.88;;;20.20;99.90;;;;;;5059158;28;20045;-63
2021/08/02 12:01:11;;;;;;;4.38;0.63;;;21.00;99.90;;;;;;5059841;28;20522;-63
2021/08/02 12:03:37;;;;;;;2.28;0.88;;;21.30;99.90;;;;;;5063806;28;20033;-63
2021/08/02 12:06:05;;;;;;;1.92;0.50;;;21.50;99.90;;;;;;5067370;28;20041;-63
2021/08/02 12:08:32;;;;;;;2.97;0.50;;;21.10;99.90;;;;;;5062934;28;20506;-62
2021/08/02 12:11:03;;;;;;;4.68;0.70;;;21.10;99.90;;;;;;5064913;28;20045;-63
2021/08/02 12:13:40;;;;;;;2.92;0.45;;;20.90;99.90;;;;;;5065622;28;20069;-63
2021/08/02 12:16:07;;;;;;;3.72;0.60;;;20.80;99.90;;;;;;5063010;28;20559;-63
2021/08/02 12:18:33;;;;;;;3.72;0.68;;;20.40;99.90;;;;;;5065704;28;20049;-63
2021/08/02 12:21:12;;;;;;;3.17;0.70;;;20.40;99.90;;;;;;5066809;28;20094;-63
2021/08/02 12:23:38;;;;;;;2.78;0.90;;;20.30;99.90;;;;;;5059425;28;20044;-62
2021/08/02 12:26:18;;;;;;;3.90;0.90;;;20.00;99.90;;;;;;5065514;28;20052;-62
2021/08/02 12:28:44;;;;;;;2.33;0.75;;;20.20;99.90;;;;;;5060809;28;20408;-62
2021/08/02 12:31:21;;;;;;;3.67;0.80;;;19.70;99.90;;;;;;5064702;28;20041;-63
2021/08/02 12:33:49;;;;;;;3.15;0.88;;;19.60;99.90;;;;;;5065378;28;20048;-63
2021/08/02 12:36:16;;;;;;;1.83;0.77;;;19.50;99.90;;;;;;5062377;28;20053;-63
2021/08/02 12:38:48;;;;;;;1.67;0.60;;;19.50;99.90;;;;;;5060697;28;20044;-63
2021/08/02 12:41:14;;;;;;;0.55;0.38;;;19.40;99.90;;;;;;5062448;28;20048;-63
2021/08/02 12:43:42;;;;;;;4.10;0.40;;;19.70;99.90;;;;;;5055465;28;20124;-64
2021/08/02 12:46:10;;;;;;;1.30;0.40;;;19.90;99.90;;;;;;5058545;28;20052;-63
2021/08/02 12:48:35;;;;;;;1.52;0.60;;;20.20;99.90;;;;;;5059733;28;20080;-64
2021/08/02 12:51:01;;;;;;;7.72;0.63;;;20.50;99.90;;;;;;5057555;28;20049;-64
2021/08/02 12:53:27;;;;;;;0.93;0.30;;;20.10;99.90;;;;;;5062516;28;20041;-64